<?xml version="1.0" encoding="UTF-8" standalone="no" ?>
<gpx xmlns="http://www.topografix.com/GPX/1/1" xmlns:xsi="http://www.w3.org/2001/XMLSchema-instance" xsi:schemaLocation="http://www.topografix.com/GPX/1/1 http://www.topografix.com/GPX/1/1/gpx.xsd" version="1.1" creator="VisuGPX - https://www.visugpx.com">
  <metadata>
    <name>13211574-St Mars La Réorthe Boucle à partir de l'église</name>
  </metadata>
  <trk>
    <name><![CDATA[13211574-St Mars La Réorthe Boucle à partir de l'église]]></name>
    <trkseg>
      <trkpt lat="46.86264" lon="-0.92542">
        <ele>141</ele>
        <time>2021-06-09T15:46:37Z</time>
      </trkpt>
      <trkpt lat="46.8626" lon="-0.9255">
        <ele>141</ele>
        <time>2021-06-09T15:46:46Z</time>
      </trkpt>
      <trkpt lat="46.86254" lon="-0.92563">
        <ele>141</ele>
        <time>2021-06-09T15:47:00Z</time>
      </trkpt>
      <trkpt lat="46.86249" lon="-0.92576">
        <ele>141</ele>
        <time>2021-06-09T15:47:14Z</time>
      </trkpt>
      <trkpt lat="46.86247" lon="-0.92583">
        <ele>141</ele>
        <time>2021-06-09T15:47:21Z</time>
      </trkpt>
      <trkpt lat="46.86255" lon="-0.92599">
        <ele>140</ele>
        <time>2021-06-09T15:47:39Z</time>
      </trkpt>
      <trkpt lat="46.86259" lon="-0.92612">
        <ele>140</ele>
        <time>2021-06-09T15:47:52Z</time>
      </trkpt>
      <trkpt lat="46.86258" lon="-0.92623">
        <ele>139</ele>
        <time>2021-06-09T15:48:02Z</time>
      </trkpt>
      <trkpt lat="46.86258" lon="-0.92636">
        <ele>139</ele>
        <time>2021-06-09T15:48:14Z</time>
      </trkpt>
      <trkpt lat="46.86262" lon="-0.92659">
        <ele>138</ele>
        <time>2021-06-09T15:48:36Z</time>
      </trkpt>
      <trkpt lat="46.86266" lon="-0.92709">
        <ele>136</ele>
        <time>2021-06-09T15:49:22Z</time>
      </trkpt>
      <trkpt lat="46.86269" lon="-0.92741">
        <ele>135</ele>
        <time>2021-06-09T15:49:51Z</time>
      </trkpt>
      <trkpt lat="46.86253" lon="-0.92779">
        <ele>133</ele>
        <time>2021-06-09T15:50:32Z</time>
      </trkpt>
      <trkpt lat="46.86249" lon="-0.9281">
        <ele>131</ele>
        <time>2021-06-09T15:51:01Z</time>
      </trkpt>
      <trkpt lat="46.86247" lon="-0.92827">
        <ele>129</ele>
        <time>2021-06-09T15:51:16Z</time>
      </trkpt>
      <trkpt lat="46.86247" lon="-0.92864">
        <ele>128</ele>
        <time>2021-06-09T15:51:50Z</time>
      </trkpt>
      <trkpt lat="46.86239" lon="-0.92896">
        <ele>128</ele>
        <time>2021-06-09T15:52:21Z</time>
      </trkpt>
      <trkpt lat="46.8623" lon="-0.92926">
        <ele>128</ele>
        <time>2021-06-09T15:52:51Z</time>
      </trkpt>
      <trkpt lat="46.86222" lon="-0.92943">
        <ele>129</ele>
        <time>2021-06-09T15:53:10Z</time>
      </trkpt>
      <trkpt lat="46.86212" lon="-0.92954">
        <ele>130</ele>
        <time>2021-06-09T15:53:27Z</time>
      </trkpt>
      <trkpt lat="46.86201" lon="-0.92967">
        <ele>131</ele>
        <time>2021-06-09T15:53:45Z</time>
      </trkpt>
      <trkpt lat="46.86198" lon="-0.92981">
        <ele>132</ele>
        <time>2021-06-09T15:53:59Z</time>
      </trkpt>
      <trkpt lat="46.86196" lon="-0.93">
        <ele>133</ele>
        <time>2021-06-09T15:54:16Z</time>
      </trkpt>
      <trkpt lat="46.86203" lon="-0.93033">
        <ele>134</ele>
        <time>2021-06-09T15:54:48Z</time>
      </trkpt>
      <trkpt lat="46.8621" lon="-0.93052">
        <ele>136</ele>
        <time>2021-06-09T15:55:08Z</time>
      </trkpt>
      <trkpt lat="46.86224" lon="-0.93081">
        <ele>137</ele>
        <time>2021-06-09T15:55:40Z</time>
      </trkpt>
      <trkpt lat="46.8625" lon="-0.93124">
        <ele>139</ele>
        <time>2021-06-09T15:56:32Z</time>
      </trkpt>
      <trkpt lat="46.8627" lon="-0.93158">
        <ele>140</ele>
        <time>2021-06-09T15:57:13Z</time>
      </trkpt>
      <trkpt lat="46.86286" lon="-0.93165">
        <ele>139</ele>
        <time>2021-06-09T15:57:36Z</time>
      </trkpt>
      <trkpt lat="46.8633" lon="-0.93238">
        <ele>140</ele>
        <time>2021-06-09T15:59:04Z</time>
      </trkpt>
      <trkpt lat="46.86377" lon="-0.93316">
        <ele>136</ele>
        <time>2021-06-09T16:00:39Z</time>
      </trkpt>
      <trkpt lat="46.86379" lon="-0.93404">
        <ele>135</ele>
        <time>2021-06-09T16:02:00Z</time>
      </trkpt>
      <trkpt lat="46.86385" lon="-0.93548">
        <ele>132</ele>
        <time>2021-06-09T16:04:11Z</time>
      </trkpt>
      <trkpt lat="46.86388" lon="-0.93607">
        <ele>130</ele>
        <time>2021-06-09T16:05:05Z</time>
      </trkpt>
      <trkpt lat="46.86391" lon="-0.93705">
        <ele>128</ele>
        <time>2021-06-09T16:06:35Z</time>
      </trkpt>
      <trkpt lat="46.86393" lon="-0.93766">
        <ele>127</ele>
        <time>2021-06-09T16:07:30Z</time>
      </trkpt>
      <trkpt lat="46.864" lon="-0.93848">
        <ele>127</ele>
        <time>2021-06-09T16:08:46Z</time>
      </trkpt>
      <trkpt lat="46.86407" lon="-0.9391">
        <ele>125</ele>
        <time>2021-06-09T16:09:43Z</time>
      </trkpt>
      <trkpt lat="46.86399" lon="-0.93917">
        <ele>125</ele>
        <time>2021-06-09T16:09:56Z</time>
      </trkpt>
      <trkpt lat="46.86401" lon="-0.93955">
        <ele>123</ele>
        <time>2021-06-09T16:10:30Z</time>
      </trkpt>
      <trkpt lat="46.86401" lon="-0.9398">
        <ele>121</ele>
        <time>2021-06-09T16:10:53Z</time>
      </trkpt>
      <trkpt lat="46.86407" lon="-0.94022">
        <ele>119</ele>
        <time>2021-06-09T16:11:32Z</time>
      </trkpt>
      <trkpt lat="46.86412" lon="-0.94052">
        <ele>117</ele>
        <time>2021-06-09T16:12:00Z</time>
      </trkpt>
      <trkpt lat="46.86421" lon="-0.94063">
        <ele>117</ele>
        <time>2021-06-09T16:12:16Z</time>
      </trkpt>
      <trkpt lat="46.86419" lon="-0.941">
        <ele>116</ele>
        <time>2021-06-09T16:12:50Z</time>
      </trkpt>
      <trkpt lat="46.86405" lon="-0.94152">
        <ele>116</ele>
        <time>2021-06-09T16:13:41Z</time>
      </trkpt>
      <trkpt lat="46.86396" lon="-0.94194">
        <ele>116</ele>
        <time>2021-06-09T16:14:21Z</time>
      </trkpt>
      <trkpt lat="46.86392" lon="-0.94258">
        <ele>117</ele>
        <time>2021-06-09T16:15:20Z</time>
      </trkpt>
      <trkpt lat="46.86399" lon="-0.94293">
        <ele>116</ele>
        <time>2021-06-09T16:15:53Z</time>
      </trkpt>
      <trkpt lat="46.8642" lon="-0.94343">
        <ele>116</ele>
        <time>2021-06-09T16:16:47Z</time>
      </trkpt>
      <trkpt lat="46.86431" lon="-0.94389">
        <ele>115</ele>
        <time>2021-06-09T16:17:31Z</time>
      </trkpt>
      <trkpt lat="46.8643" lon="-0.94432">
        <ele>114</ele>
        <time>2021-06-09T16:18:10Z</time>
      </trkpt>
      <trkpt lat="46.86424" lon="-0.94467">
        <ele>113</ele>
        <time>2021-06-09T16:18:43Z</time>
      </trkpt>
      <trkpt lat="46.86398" lon="-0.94514">
        <ele>113</ele>
        <time>2021-06-09T16:19:38Z</time>
      </trkpt>
      <trkpt lat="46.86378" lon="-0.94552">
        <ele>114</ele>
        <time>2021-06-09T16:20:22Z</time>
      </trkpt>
      <trkpt lat="46.86367" lon="-0.94574">
        <ele>114</ele>
        <time>2021-06-09T16:20:47Z</time>
      </trkpt>
      <trkpt lat="46.86351" lon="-0.94635">
        <ele>114</ele>
        <time>2021-06-09T16:21:47Z</time>
      </trkpt>
      <trkpt lat="46.86334" lon="-0.94659">
        <ele>113</ele>
        <time>2021-06-09T16:22:18Z</time>
      </trkpt>
      <trkpt lat="46.86281" lon="-0.94688">
        <ele>113</ele>
        <time>2021-06-09T16:23:34Z</time>
      </trkpt>
      <trkpt lat="46.86263" lon="-0.94683">
        <ele>113</ele>
        <time>2021-06-09T16:23:58Z</time>
      </trkpt>
      <trkpt lat="46.86202" lon="-0.9465">
        <ele>117</ele>
        <time>2021-06-09T16:25:25Z</time>
      </trkpt>
      <trkpt lat="46.86158" lon="-0.94625">
        <ele>120</ele>
        <time>2021-06-09T16:26:28Z</time>
      </trkpt>
      <trkpt lat="46.86124" lon="-0.94607">
        <ele>124</ele>
        <time>2021-06-09T16:27:16Z</time>
      </trkpt>
      <trkpt lat="46.86091" lon="-0.9458">
        <ele>127</ele>
        <time>2021-06-09T16:28:07Z</time>
      </trkpt>
      <trkpt lat="46.86061" lon="-0.94557">
        <ele>128</ele>
        <time>2021-06-09T16:28:52Z</time>
      </trkpt>
      <trkpt lat="46.8602" lon="-0.94513">
        <ele>129</ele>
        <time>2021-06-09T16:30:00Z</time>
      </trkpt>
      <trkpt lat="46.85986" lon="-0.94477">
        <ele>128</ele>
        <time>2021-06-09T16:30:56Z</time>
      </trkpt>
      <trkpt lat="46.85924" lon="-0.94404">
        <ele>127</ele>
        <time>2021-06-09T16:32:42Z</time>
      </trkpt>
      <trkpt lat="46.85877" lon="-0.94353">
        <ele>127</ele>
        <time>2021-06-09T16:34:00Z</time>
      </trkpt>
      <trkpt lat="46.85861" lon="-0.94336">
        <ele>127</ele>
        <time>2021-06-09T16:34:26Z</time>
      </trkpt>
      <trkpt lat="46.85784" lon="-0.94227">
        <ele>129</ele>
        <time>2021-06-09T16:36:49Z</time>
      </trkpt>
      <trkpt lat="46.85743" lon="-0.94171">
        <ele>130</ele>
        <time>2021-06-09T16:38:04Z</time>
      </trkpt>
      <trkpt lat="46.8571" lon="-0.9414">
        <ele>132</ele>
        <time>2021-06-09T16:38:57Z</time>
      </trkpt>
      <trkpt lat="46.85678" lon="-0.94095">
        <ele>133</ele>
        <time>2021-06-09T16:39:56Z</time>
      </trkpt>
      <trkpt lat="46.85652" lon="-0.94076">
        <ele>135</ele>
        <time>2021-06-09T16:40:35Z</time>
      </trkpt>
      <trkpt lat="46.85597" lon="-0.94003">
        <ele>139</ele>
        <time>2021-06-09T16:42:14Z</time>
      </trkpt>
      <trkpt lat="46.85559" lon="-0.93937">
        <ele>141</ele>
        <time>2021-06-09T16:43:32Z</time>
      </trkpt>
      <trkpt lat="46.85526" lon="-0.93881">
        <ele>143</ele>
        <time>2021-06-09T16:44:40Z</time>
      </trkpt>
      <trkpt lat="46.85463" lon="-0.93734">
        <ele>147</ele>
        <time>2021-06-09T16:47:18Z</time>
      </trkpt>
      <trkpt lat="46.85406" lon="-0.93622">
        <ele>148</ele>
        <time>2021-06-09T16:49:26Z</time>
      </trkpt>
      <trkpt lat="46.85353" lon="-0.93505">
        <ele>151</ele>
        <time>2021-06-09T16:51:34Z</time>
      </trkpt>
      <trkpt lat="46.8534" lon="-0.93482">
        <ele>152</ele>
        <time>2021-06-09T16:52:01Z</time>
      </trkpt>
      <trkpt lat="46.85259" lon="-0.9335">
        <ele>159</ele>
        <time>2021-06-09T16:54:43Z</time>
      </trkpt>
      <trkpt lat="46.85163" lon="-0.93278">
        <ele>165</ele>
        <time>2021-06-09T16:57:07Z</time>
      </trkpt>
      <trkpt lat="46.85094" lon="-0.93204">
        <ele>168</ele>
        <time>2021-06-09T16:59:01Z</time>
      </trkpt>
      <trkpt lat="46.85154" lon="-0.93262">
        <ele>166</ele>
        <time>2021-06-09T17:00:37Z</time>
      </trkpt>
      <trkpt lat="46.85244" lon="-0.93327">
        <ele>160</ele>
        <time>2021-06-09T17:02:51Z</time>
      </trkpt>
      <trkpt lat="46.85327" lon="-0.9345">
        <ele>153</ele>
        <time>2021-06-09T17:05:29Z</time>
      </trkpt>
      <trkpt lat="46.85382" lon="-0.9355">
        <ele>149</ele>
        <time>2021-06-09T17:07:26Z</time>
      </trkpt>
      <trkpt lat="46.85446" lon="-0.93684">
        <ele>147</ele>
        <time>2021-06-09T17:09:55Z</time>
      </trkpt>
      <trkpt lat="46.85469" lon="-0.93727">
        <ele>147</ele>
        <time>2021-06-09T17:10:45Z</time>
      </trkpt>
      <trkpt lat="46.85488" lon="-0.9372">
        <ele>146</ele>
        <time>2021-06-09T17:11:11Z</time>
      </trkpt>
      <trkpt lat="46.85516" lon="-0.93681">
        <ele>143</ele>
        <time>2021-06-09T17:12:02Z</time>
      </trkpt>
      <trkpt lat="46.85542" lon="-0.93654">
        <ele>142</ele>
        <time>2021-06-09T17:12:45Z</time>
      </trkpt>
      <trkpt lat="46.85571" lon="-0.93641">
        <ele>141</ele>
        <time>2021-06-09T17:13:25Z</time>
      </trkpt>
      <trkpt lat="46.85598" lon="-0.93621">
        <ele>139</ele>
        <time>2021-06-09T17:14:06Z</time>
      </trkpt>
      <trkpt lat="46.85614" lon="-0.93596">
        <ele>139</ele>
        <time>2021-06-09T17:14:37Z</time>
      </trkpt>
      <trkpt lat="46.85632" lon="-0.93584">
        <ele>138</ele>
        <time>2021-06-09T17:15:04Z</time>
      </trkpt>
      <trkpt lat="46.85638" lon="-0.93543">
        <ele>138</ele>
        <time>2021-06-09T17:15:42Z</time>
      </trkpt>
      <trkpt lat="46.85656" lon="-0.93493">
        <ele>138</ele>
        <time>2021-06-09T17:16:33Z</time>
      </trkpt>
      <trkpt lat="46.85684" lon="-0.93457">
        <ele>139</ele>
        <time>2021-06-09T17:17:23Z</time>
      </trkpt>
      <trkpt lat="46.85701" lon="-0.93421">
        <ele>139</ele>
        <time>2021-06-09T17:18:03Z</time>
      </trkpt>
      <trkpt lat="46.85716" lon="-0.93391">
        <ele>140</ele>
        <time>2021-06-09T17:18:37Z</time>
      </trkpt>
      <trkpt lat="46.85728" lon="-0.93322">
        <ele>142</ele>
        <time>2021-06-09T17:19:42Z</time>
      </trkpt>
      <trkpt lat="46.85732" lon="-0.93235">
        <ele>144</ele>
        <time>2021-06-09T17:21:01Z</time>
      </trkpt>
      <trkpt lat="46.85742" lon="-0.93183">
        <ele>143</ele>
        <time>2021-06-09T17:21:51Z</time>
      </trkpt>
      <trkpt lat="46.85761" lon="-0.93132">
        <ele>142</ele>
        <time>2021-06-09T17:22:44Z</time>
      </trkpt>
      <trkpt lat="46.85778" lon="-0.93096">
        <ele>141</ele>
        <time>2021-06-09T17:23:24Z</time>
      </trkpt>
      <trkpt lat="46.85799" lon="-0.93073">
        <ele>140</ele>
        <time>2021-06-09T17:23:59Z</time>
      </trkpt>
      <trkpt lat="46.85825" lon="-0.93017">
        <ele>139</ele>
        <time>2021-06-09T17:25:00Z</time>
      </trkpt>
      <trkpt lat="46.85844" lon="-0.92967">
        <ele>138</ele>
        <time>2021-06-09T17:25:53Z</time>
      </trkpt>
      <trkpt lat="46.85862" lon="-0.92921">
        <ele>137</ele>
        <time>2021-06-09T17:26:41Z</time>
      </trkpt>
      <trkpt lat="46.85878" lon="-0.92894">
        <ele>136</ele>
        <time>2021-06-09T17:27:14Z</time>
      </trkpt>
      <trkpt lat="46.85884" lon="-0.92833">
        <ele>136</ele>
        <time>2021-06-09T17:28:10Z</time>
      </trkpt>
      <trkpt lat="46.85889" lon="-0.92798">
        <ele>136</ele>
        <time>2021-06-09T17:28:43Z</time>
      </trkpt>
      <trkpt lat="46.85908" lon="-0.9277">
        <ele>135</ele>
        <time>2021-06-09T17:29:18Z</time>
      </trkpt>
      <trkpt lat="46.8593" lon="-0.92764">
        <ele>134</ele>
        <time>2021-06-09T17:29:48Z</time>
      </trkpt>
      <trkpt lat="46.85947" lon="-0.9271">
        <ele>136</ele>
        <time>2021-06-09T17:30:43Z</time>
      </trkpt>
      <trkpt lat="46.85936" lon="-0.92688">
        <ele>138</ele>
        <time>2021-06-09T17:31:07Z</time>
      </trkpt>
      <trkpt lat="46.85928" lon="-0.92626">
        <ele>142</ele>
        <time>2021-06-09T17:32:05Z</time>
      </trkpt>
      <trkpt lat="46.85926" lon="-0.92572">
        <ele>145</ele>
        <time>2021-06-09T17:32:54Z</time>
      </trkpt>
      <trkpt lat="46.85917" lon="-0.92522">
        <ele>146</ele>
        <time>2021-06-09T17:33:42Z</time>
      </trkpt>
      <trkpt lat="46.85918" lon="-0.92455">
        <ele>145</ele>
        <time>2021-06-09T17:34:43Z</time>
      </trkpt>
      <trkpt lat="46.85922" lon="-0.92389">
        <ele>144</ele>
        <time>2021-06-09T17:35:43Z</time>
      </trkpt>
      <trkpt lat="46.85937" lon="-0.92355">
        <ele>142</ele>
        <time>2021-06-09T17:36:20Z</time>
      </trkpt>
      <trkpt lat="46.85906" lon="-0.92315">
        <ele>143</ele>
        <time>2021-06-09T17:37:15Z</time>
      </trkpt>
      <trkpt lat="46.85873" lon="-0.92289">
        <ele>145</ele>
        <time>2021-06-09T17:38:05Z</time>
      </trkpt>
      <trkpt lat="46.85885" lon="-0.92226">
        <ele>141</ele>
        <time>2021-06-09T17:39:05Z</time>
      </trkpt>
      <trkpt lat="46.85861" lon="-0.92165">
        <ele>141</ele>
        <time>2021-06-09T17:40:09Z</time>
      </trkpt>
      <trkpt lat="46.85811" lon="-0.9208">
        <ele>142</ele>
        <time>2021-06-09T17:41:52Z</time>
      </trkpt>
      <trkpt lat="46.85754" lon="-0.9201">
        <ele>146</ele>
        <time>2021-06-09T17:43:31Z</time>
      </trkpt>
      <trkpt lat="46.85749" lon="-0.91996">
        <ele>146</ele>
        <time>2021-06-09T17:43:45Z</time>
      </trkpt>
      <trkpt lat="46.85796" lon="-0.91964">
        <ele>146</ele>
        <time>2021-06-09T17:44:54Z</time>
      </trkpt>
      <trkpt lat="46.85854" lon="-0.91907">
        <ele>149</ele>
        <time>2021-06-09T17:46:28Z</time>
      </trkpt>
      <trkpt lat="46.85869" lon="-0.91826">
        <ele>153</ele>
        <time>2021-06-09T17:47:44Z</time>
      </trkpt>
      <trkpt lat="46.85879" lon="-0.91785">
        <ele>155</ele>
        <time>2021-06-09T17:48:24Z</time>
      </trkpt>
      <trkpt lat="46.85895" lon="-0.91761">
        <ele>155</ele>
        <time>2021-06-09T17:48:55Z</time>
      </trkpt>
      <trkpt lat="46.85899" lon="-0.91733">
        <ele>156</ele>
        <time>2021-06-09T17:49:21Z</time>
      </trkpt>
      <trkpt lat="46.85878" lon="-0.91693">
        <ele>158</ele>
        <time>2021-06-09T17:50:07Z</time>
      </trkpt>
      <trkpt lat="46.85851" lon="-0.91639">
        <ele>163</ele>
        <time>2021-06-09T17:51:08Z</time>
      </trkpt>
      <trkpt lat="46.85838" lon="-0.91617">
        <ele>165</ele>
        <time>2021-06-09T17:51:34Z</time>
      </trkpt>
      <trkpt lat="46.85881" lon="-0.91571">
        <ele>166</ele>
        <time>2021-06-09T17:52:45Z</time>
      </trkpt>
      <trkpt lat="46.85891" lon="-0.91534">
        <ele>168</ele>
        <time>2021-06-09T17:53:22Z</time>
      </trkpt>
      <trkpt lat="46.85896" lon="-0.9148">
        <ele>172</ele>
        <time>2021-06-09T17:54:11Z</time>
      </trkpt>
      <trkpt lat="46.85927" lon="-0.91414">
        <ele>174</ele>
        <time>2021-06-09T17:55:24Z</time>
      </trkpt>
      <trkpt lat="46.85943" lon="-0.91389">
        <ele>172</ele>
        <time>2021-06-09T17:55:56Z</time>
      </trkpt>
      <trkpt lat="46.85992" lon="-0.9137">
        <ele>162</ele>
        <time>2021-06-09T17:57:03Z</time>
      </trkpt>
      <trkpt lat="46.86" lon="-0.91391">
        <ele>159</ele>
        <time>2021-06-09T17:57:25Z</time>
      </trkpt>
      <trkpt lat="46.86028" lon="-0.91397">
        <ele>158</ele>
        <time>2021-06-09T17:58:03Z</time>
      </trkpt>
      <trkpt lat="46.86037" lon="-0.91413">
        <ele>158</ele>
        <time>2021-06-09T17:58:22Z</time>
      </trkpt>
      <trkpt lat="46.86031" lon="-0.91489">
        <ele>156</ele>
        <time>2021-06-09T17:59:32Z</time>
      </trkpt>
      <trkpt lat="46.86038" lon="-0.91536">
        <ele>155</ele>
        <time>2021-06-09T18:00:16Z</time>
      </trkpt>
      <trkpt lat="46.86036" lon="-0.91591">
        <ele>154</ele>
        <time>2021-06-09T18:01:06Z</time>
      </trkpt>
      <trkpt lat="46.86027" lon="-0.91639">
        <ele>153</ele>
        <time>2021-06-09T18:01:51Z</time>
      </trkpt>
      <trkpt lat="46.86035" lon="-0.91722">
        <ele>152</ele>
        <time>2021-06-09T18:03:08Z</time>
      </trkpt>
      <trkpt lat="46.8603" lon="-0.91778">
        <ele>152</ele>
        <time>2021-06-09T18:03:59Z</time>
      </trkpt>
      <trkpt lat="46.8602" lon="-0.91807">
        <ele>151</ele>
        <time>2021-06-09T18:04:29Z</time>
      </trkpt>
      <trkpt lat="46.85978" lon="-0.91858">
        <ele>151</ele>
        <time>2021-06-09T18:05:42Z</time>
      </trkpt>
      <trkpt lat="46.85989" lon="-0.91897">
        <ele>149</ele>
        <time>2021-06-09T18:06:20Z</time>
      </trkpt>
      <trkpt lat="46.86022" lon="-0.9196">
        <ele>147</ele>
        <time>2021-06-09T18:07:33Z</time>
      </trkpt>
      <trkpt lat="46.86071" lon="-0.92039">
        <ele>147</ele>
        <time>2021-06-09T18:09:10Z</time>
      </trkpt>
      <trkpt lat="46.86112" lon="-0.92129">
        <ele>144</ele>
        <time>2021-06-09T18:10:49Z</time>
      </trkpt>
      <trkpt lat="46.86139" lon="-0.92198">
        <ele>143</ele>
        <time>2021-06-09T18:12:01Z</time>
      </trkpt>
      <trkpt lat="46.86154" lon="-0.92291">
        <ele>142</ele>
        <time>2021-06-09T18:13:28Z</time>
      </trkpt>
      <trkpt lat="46.86202" lon="-0.92351">
        <ele>142</ele>
        <time>2021-06-09T18:14:53Z</time>
      </trkpt>
      <trkpt lat="46.86229" lon="-0.92423">
        <ele>143</ele>
        <time>2021-06-09T18:16:08Z</time>
      </trkpt>
      <trkpt lat="46.86251" lon="-0.92485">
        <ele>142</ele>
        <time>2021-06-09T18:17:11Z</time>
      </trkpt>
      <trkpt lat="46.86262" lon="-0.92525">
        <ele>141</ele>
        <time>2021-06-09T18:17:51Z</time>
      </trkpt>
      <trkpt lat="46.86278" lon="-0.92531">
        <ele>141</ele>
        <time>2021-06-09T18:18:13Z</time>
      </trkpt>
    </trkseg>
  </trk>
</gpx>